Time;durP1;ratioP1;P1;durP2;ratioP2;P2;SDS_P1;SDS_P2;PMS_P1;PMS_P2;Temp;Humidity;BMP_temperature;BMP_pressure;BME280_temperature;BME280_humidity;BME280_pressure;Samples;Min_cycle;Max_cycle;Signal;HPM_P1;HPM_P2
2023/04/18 00:00:50;;;;;;;62.43;34.30;;;6.70;99.90;;;;;;5081355;28;20324;-52
2023/04/18 00:03:19;;;;;;;285.07;74.90;;;6.70;99.90;;;;;;5085330;28;20906;-51
2023/04/18 00:05:48;;;;;;;199.10;51.63;;;6.70;99.90;;;;;;5090205;28;20225;-52
2023/04/18 00:08:16;;;;;;;74.27;38.77;;;6.70;99.90;;;;;;5090244;28;20239;-52
2023/04/18 00:10:46;;;;;;;217.43;85.70;;;6.70;99.90;;;;;;5090438;28;20884;-52
2023/04/18 00:13:17;;;;;;;138.70;61.30;;;6.70;99.90;;;;;;5090190;28;20315;-52
2023/04/18 00:15:45;;;;;;;471.07;93.40;;;6.70;99.90;;;;;;5089929;28;20765;-52
2023/04/18 00:18:15;;;;;;;643.13;133.33;;;6.70;99.90;;;;;;5078022;28;20302;-52
2023/04/18 00:20:44;;;;;;;1151.07;204.60;;;6.70;99.90;;;;;;5088178;28;20246;-52
2023/04/18 00:23:13;;;;;;;136.97;47.67;;;6.70;99.90;;;;;;5089966;28;20224;-52
2023/04/18 00:25:41;;;;;;;83.87;51.03;;;6.70;99.90;;;;;;5089892;28;20200;-52
2023/04/18 00:28:11;;;;;;;64.73;43.03;;;6.70;99.90;;;;;;5089824;28;20300;-51
2023/04/18 00:30:39;;;;;;;52.37;35.13;;;6.70;99.90;;;;;;5089839;28;20210;-52
2023/04/18 00:33:07;;;;;;;64.80;39.20;;;6.80;99.90;;;;;;5089805;28;20224;-52
2023/04/18 00:35:36;;;;;;;1064.07;179.13;;;6.80;99.90;;;;;;5089584;28;20208;-52
2023/04/18 00:38:04;;;;;;;61.03;37.33;;;6.80;99.90;;;;;;5089870;28;20197;-52
2023/04/18 00:40:33;;;;;;;272.67;66.93;;;6.90;99.90;;;;;;5089637;28;20236;-52
2023/04/18 00:43:01;;;;;;;879.23;183.53;;;6.90;99.90;;;;;;5089415;28;20299;-51
2023/04/18 00:45:30;;;;;;;168.57;58.37;;;7.00;99.90;;;;;;5082527;28;20229;-52
2023/04/18 00:47:58;;;;;;;56.10;37.60;;;7.00;99.90;;;;;;5073819;28;20256;-52
2023/04/18 00:50:26;;;;;;;810.53;119.43;;;7.00;99.90;;;;;;5077233;28;20208;-51
2023/04/18 00:52:54;;;;;;;1673.93;364.50;;;7.00;99.90;;;;;;5088251;28;20224;-51
2023/04/18 00:55:23;;;;;;;816.40;130.83;;;7.10;99.90;;;;;;5089427;28;20232;-52
2023/04/18 00:57:52;;;;;;;1894.83;340.97;;;7.10;99.90;;;;;;5089688;28;20291;-52
2023/04/18 01:00:20;;;;;;;171.40;57.00;;;7.10;99.90;;;;;;5089496;28;20293;-52
2023/04/18 01:02:51;;;;;;;119.23;57.13;;;7.10;99.90;;;;;;5080510;28;20304;-52
2023/04/18 01:05:21;;;;;;;1999.90;429.20;;;7.10;99.90;;;;;;5084976;28;20208;-53
2023/04/18 01:07:49;;;;;;;56.50;38.83;;;7.20;99.90;;;;;;5089052;28;20222;-52
2023/04/18 01:10:17;;;;;;;74.83;50.80;;;7.20;99.90;;;;;;5089544;28;20235;-52
2023/04/18 01:12:45;;;;;;;1999.90;315.97;;;7.30;99.90;;;;;;5089239;28;20291;-52
2023/04/18 01:15:14;;;;;;;257.13;72.97;;;7.30;99.90;;;;;;5089489;28;20204;-51
2023/04/18 01:17:42;;;;;;;320.43;93.50;;;7.30;99.90;;;;;;5089010;28;20247;-51
2023/04/18 01:20:15;;;;;;;1999.90;708.53;;;7.40;99.90;;;;;;5077678;28;20213;-52
2023/04/18 01:22:43;;;;;;;559.07;126.70;;;7.50;99.90;;;;;;5087239;28;20290;-52
2023/04/18 01:25:13;;;;;;;573.07;122.53;;;7.40;99.90;;;;;;5078535;28;20216;-52
2023/04/18 01:27:41;;;;;;;58.03;45.20;;;7.40;99.90;;;;;;5085310;28;20702;-52
2023/04/18 01:30:10;;;;;;;1999.90;910.20;;;7.50;99.90;;;;;;5088870;28;20236;-52
2023/04/18 01:32:38;;;;;;;1478.53;243.73;;;7.50;99.90;;;;;;5088279;28;20236;-52
2023/04/18 01:35:07;;;;;;;444.53;105.00;;;7.50;99.90;;;;;;5086446;28;20237;-53
2023/04/18 01:37:35;;;;;;;297.07;104.33;;;7.50;99.90;;;;;;5084692;28;20287;-52
2023/04/18 01:40:04;;;;;;;1999.90;759.10;;;7.50;99.90;;;;;;5076923;28;20299;-53
2023/04/18 01:42:33;;;;;;;114.43;59.80;;;7.60;99.90;;;;;;5086692;28;20196;-52
2023/04/18 01:45:01;;;;;;;371.47;99.50;;;7.60;99.90;;;;;;5074212;28;20227;-52
2023/04/18 01:47:29;;;;;;;1999.90;411.77;;;7.50;99.90;;;;;;5088796;28;20231;-52
2023/04/18 01:49:57;;;;;;;447.27;112.23;;;7.50;99.90;;;;;;5088478;28;20382;-52
2023/04/18 01:52:26;;;;;;;66.77;42.33;;;7.50;99.90;;;;;;5080224;28;20208;-51
2023/04/18 01:54:54;;;;;;;939.07;183.17;;;7.50;99.90;;;;;;5083028;28;20310;-52
2023/04/18 01:57:22;;;;;;;658.13;134.07;;;7.50;99.90;;;;;;5088762;28;20616;-52
2023/04/18 01:59:52;;;;;;;943.80;181.63;;;7.50;99.90;;;;;;5088571;28;20318;-52
2023/04/18 02:02:20;;;;;;;1005.27;197.03;;;7.50;99.90;;;;;;5088950;28;20212;-51
2023/04/18 02:04:48;;;;;;;847.20;178.80;;;7.60;99.90;;;;;;5088558;28;20791;-52
2023/04/18 02:07:16;;;;;;;373.83;111.93;;;7.50;99.90;;;;;;5088146;28;20836;-52
2023/04/18 02:09:44;;;;;;;818.33;150.27;;;7.60;99.90;;;;;;5077927;28;20687;-52
2023/04/18 02:12:12;;;;;;;1428.90;237.07;;;7.60;99.90;;;;;;5084600;28;20291;-52
2023/04/18 02:14:40;;;;;;;249.03;83.60;;;7.60;99.90;;;;;;5088267;28;20239;-52
2023/04/18 02:17:09;;;;;;;1353.53;221.93;;;7.60;99.90;;;;;;5088240;28;20307;-51
2023/04/18 02:19:37;;;;;;;251.97;73.63;;;7.60;99.90;;;;;;5088425;28;20224;-51
2023/04/18 02:22:05;;;;;;;1234.03;240.33;;;7.50;99.90;;;;;;5092237;28;20334;-52
2023/04/18 02:24:33;;;;;;;1999.90;398.93;;;7.50;99.90;;;;;;5092111;28;20943;-52
2023/04/18 02:27:01;;;;;;;1999.90;569.77;;;7.40;99.90;;;;;;5091955;28;20316;-52
2023/04/18 02:29:30;;;;;;;246.67;87.93;;;7.40;99.90;;;;;;5092148;28;20694;-52
2023/04/18 02:31:58;;;;;;;1999.90;640.73;;;7.40;99.90;;;;;;5091879;28;20208;-52
2023/04/18 02:34:27;;;;;;;953.17;161.27;;;7.40;99.90;;;;;;5091956;28;20706;-52
2023/04/18 02:36:55;;;;;;;1752.10;261.73;;;7.40;99.90;;;;;;5092126;28;20246;-51
2023/04/18 02:39:23;;;;;;;1432.73;244.80;;;7.40;99.90;;;;;;5091685;28;20315;-52
2023/04/18 02:41:51;;;;;;;1999.90;474.20;;;7.40;99.90;;;;;;5092167;28;20258;-52
2023/04/18 02:44:19;;;;;;;313.47;104.97;;;7.40;99.90;;;;;;5077835;28;20227;-52
2023/04/18 02:46:47;;;;;;;269.63;79.93;;;7.30;99.90;;;;;;5077860;28;20227;-51
2023/04/18 02:49:15;;;;;;;1670.17;235.03;;;7.40;99.90;;;;;;5091947;28;20228;-52
2023/04/18 02:51:45;;;;;;;399.97;94.00;;;7.30;99.90;;;;;;5091620;28;20666;-51
2023/04/18 02:54:13;;;;;;;1185.53;177.47;;;7.30;99.90;;;;;;5091621;28;20228;-51
2023/04/18 02:56:41;;;;;;;1601.67;223.27;;;7.30;99.90;;;;;;5091801;28;20235;-52
2023/04/18 02:59:09;;;;;;;1999.90;443.20;;;7.30;99.90;;;;;;5091590;28;20200;-52
2023/04/18 03:01:37;;;;;;;125.20;49.40;;;7.20;99.90;;;;;;5091591;28;20299;-51
2023/04/18 03:04:05;;;;;;;70.87;45.83;;;7.20;99.90;;;;;;5091275;28;20228;-51
2023/04/18 03:06:33;;;;;;;750.13;157.07;;;7.20;99.90;;;;;;5091163;28;20818;-52
2023/04/18 03:09:03;;;;;;;1999.90;459.00;;;7.20;99.90;;;;;;5091444;28;20906;-52
2023/04/18 03:11:31;;;;;;;71.53;45.17;;;7.20;99.90;;;;;;5091537;28;20650;-52
2023/04/18 03:13:59;;;;;;;1996.30;288.83;;;7.20;99.90;;;;;;5077100;28;20259;-52
2023/04/18 03:16:27;;;;;;;53.17;37.43;;;7.10;99.90;;;;;;5091253;28;20749;-53
2023/04/18 03:18:55;;;;;;;1999.90;462.17;;;7.10;99.90;;;;;;5091076;28;20296;-52
2023/04/18 03:21:23;;;;;;;1497.77;299.43;;;7.10;99.90;;;;;;5090793;28;20303;-51
2023/04/18 03:23:51;;;;;;;201.10;55.33;;;7.00;99.90;;;;;;5090916;28;20238;-52
2023/04/18 03:26:21;;;;;;;336.80;97.87;;;6.90;99.90;;;;;;5091396;28;20317;-51
2023/04/18 03:28:49;;;;;;;185.83;78.33;;;6.90;99.90;;;;;;5090615;28;20228;-51
2023/04/18 03:31:17;;;;;;;90.03;57.73;;;7.00;99.90;;;;;;5090396;28;20315;-52
2023/04/18 03:33:45;;;;;;;406.83;85.20;;;7.00;99.90;;;;;;5089906;28;20608;-52
2023/04/18 03:36:16;;;;;;;199.60;86.83;;;7.10;99.90;;;;;;5091111;28;20251;-52
2023/04/18 03:38:44;;;;;;;38.67;28.93;;;7.10;99.90;;;;;;5090794;28;20708;-52
2023/04/18 03:41:12;;;;;;;179.77;42.67;;;7.20;99.90;;;;;;5076894;28;20250;-52
2023/04/18 03:43:41;;;;;;;528.63;144.07;;;7.20;99.90;;;;;;5081967;28;20239;-52
2023/04/18 03:46:09;;;;;;;452.83;65.80;;;7.20;99.90;;;;;;5085363;28;20216;-51
2023/04/18 03:48:37;;;;;;;1009.63;164.70;;;7.20;99.90;;;;;;5090822;28;20238;-50
2023/04/18 03:51:06;;;;;;;68.63;44.43;;;7.20;99.90;;;;;;5091294;28;20291;-51
2023/04/18 03:53:34;;;;;;;261.27;75.87;;;7.20;99.90;;;;;;5090673;28;20255;-52
2023/04/18 03:56:02;;;;;;;76.10;54.60;;;7.20;99.90;;;;;;5090728;28;20567;-51
2023/04/18 03:58:30;;;;;;;102.73;59.57;;;7.20;99.90;;;;;;5090154;28;20210;-51
2023/04/18 04:01:00;;;;;;;1971.10;266.33;;;7.20;99.90;;;;;;5090467;28;20215;-52
2023/04/18 04:03:28;;;;;;;781.43;181.47;;;7.20;99.90;;;;;;5090431;28;20273;-52
2023/04/18 04:05:57;;;;;;;232.90;67.17;;;7.30;99.90;;;;;;5090326;28;20704;-52
2023/04/18 04:08:25;;;;;;;102.83;63.00;;;7.20;99.90;;;;;;5090038;28;20797;-52
2023/04/18 04:10:55;;;;;;;469.60;134.17;;;7.20;99.90;;;;;;5090467;28;20215;-52
2023/04/18 04:13:23;;;;;;;1999.90;325.30;;;7.20;99.90;;;;;;5089692;28;20259;-52
2023/04/18 04:15:51;;;;;;;138.07;49.37;;;7.30;99.90;;;;;;5090225;28;20287;-52
2023/04/18 04:18:24;;;;;;;1323.90;228.83;;;7.30;99.90;;;;;;5090121;28;20272;-52
2023/04/18 04:20:52;;;;;;;253.53;91.53;;;7.30;99.90;;;;;;5076727;28;20200;-52
2023/04/18 04:23:21;;;;;;;112.77;64.10;;;7.30;99.90;;;;;;5089905;28;20232;-52
2023/04/18 04:25:49;;;;;;;383.93;104.63;;;7.20;99.90;;;;;;5089800;28;20282;-52
2023/04/18 04:28:17;;;;;;;1999.90;633.20;;;7.30;99.90;;;;;;5089755;28;20737;-52
2023/04/18 04:30:45;;;;;;;1978.10;377.87;;;7.20;99.90;;;;;;5089931;28;20211;-52
2023/04/18 04:33:13;;;;;;;246.30;59.30;;;7.30;99.90;;;;;;5089940;28;20232;-52
2023/04/18 04:35:43;;;;;;;110.30;53.30;;;7.30;99.90;;;;;;5089986;28;20243;-52
2023/04/18 04:38:11;;;;;;;1999.90;693.03;;;7.30;99.90;;;;;;5089472;28;20683;-52
2023/04/18 04:40:39;;;;;;;53.03;32.50;;;7.40;99.90;;;;;;5089724;28;20497;-52
2023/04/18 04:43:11;;;;;;;666.37;111.90;;;7.30;99.90;;;;;;5084875;28;20316;-52
2023/04/18 04:45:40;;;;;;;723.67;133.40;;;7.30;99.90;;;;;;5087539;28;20212;-51
2023/04/18 04:48:08;;;;;;;77.33;38.90;;;7.30;99.90;;;;;;5089544;28;20218;-52
2023/04/18 04:50:38;;;;;;;419.73;81.70;;;7.30;99.90;;;;;;5089288;28;20211;-52
2023/04/18 04:53:08;;;;;;;1205.67;233.87;;;7.30;99.90;;;;;;5089443;28;20241;-52
2023/04/18 04:55:37;;;;;;;1952.53;309.17;;;7.40;99.90;;;;;;5089563;28;20243;-52
2023/04/18 04:58:05;;;;;;;168.10;60.60;;;7.50;99.90;;;;;;5089196;28;20647;-52
2023/04/18 05:00:33;;;;;;;1999.90;311.73;;;7.50;99.90;;;;;;5089374;28;20240;-51
2023/04/18 05:03:01;;;;;;;176.37;60.73;;;7.40;99.90;;;;;;5089088;28;20675;-51
2023/04/18 05:05:30;;;;;;;1967.73;417.30;;;7.50;99.90;;;;;;5088872;28;20563;-51
2023/04/18 05:07:58;;;;;;;159.43;59.27;;;7.50;99.90;;;;;;5089316;28;20559;-52
2023/04/18 05:10:27;;;;;;;912.03;176.53;;;7.40;99.90;;;;;;5089086;28;20314;-52
2023/04/18 05:12:55;;;;;;;50.60;35.77;;;7.40;99.90;;;;;;5088989;28;20583;-52
2023/04/18 05:15:24;;;;;;;133.60;53.33;;;7.50;99.90;;;;;;5088979;28;20295;-52
2023/04/18 05:17:51;;;;;;;366.67;94.10;;;7.50;99.90;;;;;;5088674;28;20662;-51
2023/04/18 05:20:21;;;;;;;326.17;73.20;;;7.50;99.90;;;;;;5088771;28;20236;-52
2023/04/18 05:22:49;;;;;;;1835.37;227.47;;;7.50;99.90;;;;;;5088612;28;20292;-52
2023/04/18 05:25:17;;;;;;;252.30;84.27;;;7.50;99.90;;;;;;5088717;28;20235;-51
2023/04/18 05:27:46;;;;;;;1999.90;331.03;;;7.50;99.90;;;;;;5076092;28;20207;-52
2023/04/18 05:30:15;;;;;;;1719.30;252.43;;;7.60;99.90;;;;;;5088392;28;20311;-52
2023/04/18 05:32:43;;;;;;;165.27;54.63;;;7.50;99.90;;;;;;5075030;28;20201;-52
2023/04/18 05:35:11;;;;;;;109.03;32.03;;;7.50;99.90;;;;;;5088704;28;20251;-52
2023/04/18 05:37:39;;;;;;;1402.57;203.50;;;7.50;99.90;;;;;;5088584;28;20287;-52
2023/04/18 05:40:09;;;;;;;1524.90;265.37;;;7.60;99.90;;;;;;5088728;28;20228;-51
2023/04/18 05:42:37;;;;;;;1049.33;170.10;;;7.60;99.90;;;;;;5088218;28;20196;-52
2023/04/18 05:45:08;;;;;;;716.23;141.53;;;7.60;99.90;;;;;;5088726;28;20314;-52
2023/04/18 05:47:36;;;;;;;265.70;90.97;;;7.60;99.90;;;;;;5088705;28;20205;-51
2023/04/18 05:50:05;;;;;;;93.57;42.17;;;7.60;99.90;;;;;;5088288;28;20833;-52
2023/04/18 05:52:33;;;;;;;1999.90;343.80;;;7.60;99.90;;;;;;5088598;28;20218;-51
2023/04/18 05:55:01;;;;;;;690.77;156.63;;;7.80;99.90;;;;;;5081764;28;20311;-52
2023/04/18 05:57:29;;;;;;;728.57;153.80;;;7.80;99.90;;;;;;5084789;28;20737;-52
2023/04/18 05:59:57;;;;;;;1999.90;425.33;;;7.70;99.90;;;;;;5088474;28;20243;-52
2023/04/18 06:02:26;;;;;;;534.87;116.30;;;7.80;99.90;;;;;;5088412;28;20291;-52
2023/04/18 06:04:55;;;;;;;526.47;113.93;;;7.80;99.90;;;;;;5088050;28;20717;-53
2023/04/18 06:07:24;;;;;;;1999.90;501.90;;;7.80;99.90;;;;;;5088137;28;20208;-52
2023/04/18 06:09:52;;;;;;;340.80;71.47;;;7.70;99.90;;;;;;5088079;28;20306;-52
2023/04/18 06:12:20;;;;;;;1999.90;480.53;;;7.70;99.90;;;;;;5088097;28;20299;-53
2023/04/18 06:14:50;;;;;;;1427.03;222.43;;;7.70;99.90;;;;;;5088412;28;20318;-52
2023/04/18 06:17:18;;;;;;;1968.30;381.33;;;7.70;99.90;;;;;;5088192;28;20303;-53
2023/04/18 06:19:47;;;;;;;1999.90;471.80;;;7.80;99.90;;;;;;5088108;28;20234;-53
2023/04/18 06:22:15;;;;;;;1999.90;835.00;;;7.70;99.90;;;;;;5083890;28;20296;-52
2023/04/18 06:24:43;;;;;;;330.90;85.63;;;7.90;99.90;;;;;;5077914;28;20793;-52
2023/04/18 06:27:12;;;;;;;1999.90;485.43;;;7.80;99.90;;;;;;5087749;28;20587;-52
2023/04/18 06:29:57;;;;;;;651.33;108.73;;;7.80;99.90;;;;;;5084457;28;20227;-52
2023/04/18 06:32:25;;;;;;;1648.83;322.60;;;7.80;99.90;;;;;;5093445;28;20296;-51
2023/04/18 06:34:55;;;;;;;1999.90;767.87;;;7.90;99.90;;;;;;5087816;28;20220;-51
2023/04/18 06:37:23;;;;;;;1037.37;158.77;;;8.00;99.90;;;;;;5087703;28;20670;-52
2023/04/18 06:39:51;;;;;;;1999.90;421.77;;;7.90;99.90;;;;;;5087938;28;20215;-51
2023/04/18 06:42:19;;;;;;;573.93;102.30;;;7.80;99.90;;;;;;5078345;28;20709;-52
2023/04/18 06:44:49;;;;;;;1999.90;483.00;;;7.90;99.90;;;;;;5084017;28;20235;-52
2023/04/18 06:47:17;;;;;;;325.40;92.00;;;7.80;99.90;;;;;;5087720;28;20672;-52
2023/04/18 06:49:45;;;;;;;477.50;91.40;;;7.80;99.90;;;;;;5088020;28;20315;-52
2023/04/18 06:52:14;;;;;;;490.37;94.47;;;7.90;99.90;;;;;;5088146;28;20208;-51
2023/04/18 06:54:42;;;;;;;1999.90;456.47;;;7.90;99.90;;;;;;5087986;28;20263;-52
2023/04/18 06:57:10;;;;;;;1855.33;342.70;;;8.00;99.90;;;;;;5087771;28;20204;-51
2023/04/18 06:59:40;;;;;;;1999.90;537.30;;;8.10;99.90;;;;;;5088080;28;20265;-51
2023/04/18 07:02:08;;;;;;;1999.90;562.80;;;8.10;99.90;;;;;;5087749;28;20244;-52
2023/04/18 07:04:36;;;;;;;1238.87;184.93;;;8.10;99.90;;;;;;5087912;28;20264;-51
2023/04/18 07:07:04;;;;;;;866.97;126.67;;;8.10;99.90;;;;;;5089572;28;20212;-51
2023/04/18 07:09:33;;;;;;;1405.07;195.20;;;8.10;99.90;;;;;;5091567;28;20433;-51
2023/04/18 07:12:01;;;;;;;1790.47;279.13;;;8.20;99.90;;;;;;5091049;28;20215;-51
2023/04/18 07:14:29;;;;;;;1939.63;216.83;;;8.40;99.90;;;;;;5091090;28;20263;-51
2023/04/18 07:17:01;;;;;;;1999.90;283.23;;;8.40;99.90;;;;;;5091512;28;20650;-51
2023/04/18 07:19:29;;;;;;;1882.00;266.77;;;8.40;99.90;;;;;;5091133;28;20247;-51
2023/04/18 07:21:57;;;;;;;1999.90;453.30;;;8.40;99.90;;;;;;5091276;28;20205;-51
2023/04/18 07:24:25;;;;;;;1965.37;387.70;;;8.40;99.90;;;;;;5090852;28;20710;-52
2023/04/18 07:26:54;;;;;;;1106.73;177.43;;;8.50;99.90;;;;;;5090820;28;20277;-51
2023/04/18 07:29:22;;;;;;;1999.90;552.43;;;8.60;99.90;;;;;;5090838;28;20580;-51
2023/04/18 07:31:50;;;;;;;1999.90;628.53;;;8.70;99.90;;;;;;5091091;28;20301;-51
2023/04/18 07:34:18;;;;;;;1999.90;335.50;;;8.50;99.90;;;;;;5091021;28;20243;-52
2023/04/18 07:36:46;;;;;;;1999.90;393.83;;;8.60;99.90;;;;;;5090961;28;20311;-50
2023/04/18 07:39:14;;;;;;;1999.90;711.13;;;8.60;99.90;;;;;;5079145;28;20299;-51
2023/04/18 07:41:42;;;;;;;1821.43;346.53;;;8.80;99.90;;;;;;5090836;28;20256;-51
2023/04/18 07:44:12;;;;;;;1999.90;321.80;;;8.80;99.90;;;;;;5090439;28;20321;-50
2023/04/18 07:46:40;;;;;;;1999.90;474.53;;;8.80;99.90;;;;;;5090323;28;20204;-51
2023/04/18 07:49:09;;;;;;;1999.90;712.07;;;8.70;99.90;;;;;;5090504;28;20219;-52
2023/04/18 07:51:36;;;;;;;1999.90;335.13;;;8.90;99.90;;;;;;5090539;28;20345;-52
2023/04/18 07:54:05;;;;;;;1999.90;454.33;;;9.20;99.90;;;;;;5090189;28;20346;-51
2023/04/18 07:56:33;;;;;;;1999.90;872.10;;;9.30;99.90;;;;;;5090266;28;20304;-52
2023/04/18 07:59:01;;;;;;;1999.90;516.50;;;9.40;99.90;;;;;;5090491;28;20214;-51
2023/04/18 08:01:31;;;;;;;1999.90;745.53;;;9.40;99.90;;;;;;5090340;28;20211;-52
2023/04/18 08:04:00;;;;;;;1999.90;809.70;;;9.40;99.90;;;;;;5090398;28;20241;-52
2023/04/18 08:06:29;;;;;;;1999.90;609.10;;;9.50;99.90;;;;;;5090006;28;20674;-52
2023/04/18 08:09:01;;;;;;;1999.90;619.53;;;9.50;99.90;;;;;;5090017;28;20217;-52
2023/04/18 08:11:30;;;;;;;1999.90;573.33;;;9.50;99.90;;;;;;5090325;28;20740;-52
2023/04/18 08:13:58;;;;;;;1999.90;619.70;;;9.50;99.90;;;;;;5075429;28;20221;-52
2023/04/18 08:16:26;;;;;;;1999.90;762.47;;;9.50;99.90;;;;;;5089798;28;20243;-52
2023/04/18 08:18:55;;;;;;;1999.90;320.53;;;9.60;99.90;;;;;;5080309;28;20253;-52
2023/04/18 08:21:23;;;;;;;1999.90;515.80;;;9.60;99.90;;;;;;5082494;28;20240;-52
2023/04/18 08:23:52;;;;;;;1999.90;387.93;;;9.60;99.90;;;;;;5089807;28;20804;-52
2023/04/18 08:26:20;;;;;;;1999.90;567.17;;;9.60;99.90;;;;;;5089791;28;20211;-52
2023/04/18 08:28:48;;;;;;;1999.90;902.73;;;10.00;99.90;;;;;;5089624;28;20204;-53
2023/04/18 08:31:16;;;;;;;1999.90;999.90;;;10.10;99.90;;;;;;5089756;28;20274;-52
2023/04/18 08:33:44;;;;;;;1999.90;587.67;;;10.20;99.90;;;;;;5089308;28;20235;-52
2023/04/18 08:36:14;;;;;;;1999.90;901.83;;;10.10;99.90;;;;;;5090083;28;20231;-51
2023/04/18 08:38:42;;;;;;;1999.90;459.23;;;10.10;99.90;;;;;;5079654;28;20299;-52
2023/04/18 08:41:10;;;;;;;1490.03;275.00;;;10.10;99.90;;;;;;5085959;28;20667;-52
2023/04/18 08:43:38;;;;;;;1999.90;579.83;;;10.30;99.90;;;;;;5089447;28;20227;-52
2023/04/18 08:46:07;;;;;;;1999.90;812.20;;;10.40;99.90;;;;;;5089402;28;20306;-53
2023/04/18 08:48:36;;;;;;;1999.90;646.13;;;10.40;99.90;;;;;;5089580;28;20324;-51
2023/04/18 08:51:05;;;;;;;1999.90;999.90;;;10.20;99.90;;;;;;5089044;28;20231;-52
2023/04/18 08:53:35;;;;;;;1999.90;521.63;;;10.30;99.90;;;;;;5089391;28;20262;-52
2023/04/18 08:56:04;;;;;;;1999.90;516.90;;;10.20;99.90;;;;;;5089483;28;20211;-52
2023/04/18 08:58:33;;;;;;;1999.90;584.00;;;10.20;99.90;;;;;;5105459;28;20199;-51
2023/04/18 09:01:02;;;;;;;1999.90;726.67;;;10.30;99.90;;;;;;5109418;28;20234;-52
2023/04/18 09:03:38;;;;;;;1999.90;607.57;;;10.50;99.90;;;;;;5099559;28;20862;-52
2023/04/18 09:06:08;;;;;;;1999.90;414.37;;;10.40;99.90;;;;;;5097301;28;20280;-52
2023/04/18 09:08:37;;;;;;;1999.90;656.93;;;10.50;99.90;;;;;;5081802;28;20214;-52
2023/04/18 09:11:24;;;;;;;1999.90;993.87;;;10.30;99.90;;;;;;5105742;28;20316;-52
2023/04/18 09:13:54;;;;;;;1999.90;450.50;;;10.50;99.90;;;;;;5084503;28;20238;-52
2023/04/18 09:16:23;;;;;;;1999.90;676.27;;;10.30;99.90;;;;;;5109195;28;20241;-52
2023/04/18 09:19:12;;;;;;;1999.90;598.17;;;10.30;99.90;;;;;;5109602;28;20573;-52
2023/04/18 09:21:43;;;;;;;1999.90;602.73;;;10.30;99.90;;;;;;5089886;28;20231;-49
2023/04/18 09:24:22;;;;;;;1999.90;650.90;;;10.30;99.90;;;;;;5086568;28;20719;-52
2023/04/18 09:26:52;;;;;;;1999.90;675.23;;;10.50;99.90;;;;;;5103258;28;20206;-51
2023/04/18 09:29:22;;;;;;;1999.90;662.70;;;10.50;99.90;;;;;;5080863;28;20322;-51
2023/04/18 09:31:54;;;;;;;1999.90;815.57;;;10.40;99.90;;;;;;5078934;28;20220;-52
2023/04/18 09:34:25;;;;;;;1999.90;348.13;;;10.50;99.90;;;;;;5100936;28;20251;-51
2023/04/18 09:37:14;;;;;;;1999.90;628.27;;;10.40;99.90;;;;;;5095181;28;20238;-51
2023/04/18 09:39:44;;;;;;;1404.50;268.37;;;10.50;99.90;;;;;;5092124;28;20690;-52
2023/04/18 09:42:12;;;;;;;1999.90;648.60;;;10.60;99.90;;;;;;5090735;28;20299;-52
2023/04/18 09:45:03;;;;;;;1999.90;556.73;;;10.60;99.90;;;;;;5092692;28;20385;-52
2023/04/18 09:47:33;;;;;;;1999.90;674.53;;;10.60;99.90;;;;;;5089407;28;20269;-52
2023/04/18 09:50:03;;;;;;;1999.90;715.53;;;10.70;99.90;;;;;;5093460;28;20208;-52
2023/04/18 09:52:34;;;;;;;1999.90;721.03;;;10.70;99.90;;;;;;5088833;28;20281;-52
2023/04/18 09:55:05;;;;;;;1999.90;807.80;;;10.60;99.90;;;;;;5094000;28;20243;-51
2023/04/18 09:57:34;;;;;;;1999.90;616.23;;;10.50;99.90;;;;;;5101302;28;20199;-52
2023/04/18 10:00:12;;;;;;;1999.90;635.97;;;10.60;99.90;;;;;;5108209;28;20286;-52
2023/04/18 10:02:50;;;;;;;1999.90;628.53;;;10.70;99.90;;;;;;5094311;28;20246;-52
2023/04/18 10:05:20;;;;;;;1999.90;750.77;;;10.80;99.90;;;;;;5108786;28;20660;-52
2023/04/18 10:07:50;;;;;;;1999.90;466.87;;;10.90;99.90;;;;;;5108724;28;20214;-52
2023/04/18 10:10:19;;;;;;;1999.90;889.37;;;10.90;99.90;;;;;;5094293;28;20696;-52
2023/04/18 10:12:49;;;;;;;1999.90;668.63;;;11.10;99.90;;;;;;5108794;28;20262;-52
2023/04/18 10:15:19;;;;;;;1999.90;445.93;;;11.10;99.90;;;;;;5108639;28;20257;-52
2023/04/18 10:17:53;;;;;;;1999.90;753.80;;;11.20;99.90;;;;;;5087702;28;20264;-52
2023/04/18 10:20:33;;;;;;;1999.90;462.43;;;11.20;99.90;;;;;;5108302;28;20695;-51
2023/04/18 10:23:34;;;;;;;1999.90;750.07;;;11.40;99.90;;;;;;5099469;28;20224;-52
2023/04/18 10:26:05;;;;;;;1999.90;399.77;;;11.50;99.90;;;;;;5088033;28;20200;-52
2023/04/18 10:28:55;;;;;;;1999.90;941.10;;;11.50;99.90;;;;;;5087706;28;20326;-51
2023/04/18 10:31:24;;;;;;;1999.90;710.53;;;11.60;99.90;;;;;;5090433;28;20588;-51
2023/04/18 10:33:54;;;;;;;1999.90;589.00;;;11.50;99.90;;;;;;5089206;28;20220;-52
2023/04/18 10:36:27;;;;;;;1999.90;583.63;;;11.50;99.90;;;;;;5107287;28;20218;-51
2023/04/18 10:38:59;;;;;;;1999.90;840.73;;;11.80;99.90;;;;;;5108791;28;20212;-52
2023/04/18 10:41:30;;;;;;;1999.90;561.07;;;12.00;99.90;;;;;;5108498;28;20290;-52
2023/04/18 10:44:16;;;;;;;1999.90;999.90;;;12.20;99.90;;;;;;5093538;28;20429;-52
2023/04/18 10:47:31;;;;;;;1999.90;999.90;;;12.20;99.90;;;;;;5084106;28;20311;-52
2023/04/18 10:50:02;;;;;;;1999.90;851.03;;;11.90;99.90;;;;;;5112300;28;20203;-51
2023/04/18 10:52:33;;;;;;;1999.90;909.37;;;11.80;99.90;;;;;;5111485;28;20233;-51
2023/04/18 10:55:18;;;;;;;1999.90;999.90;;;11.80;99.90;;;;;;5112023;28;20329;-52
2023/04/18 10:57:49;;;;;;;1999.90;992.60;;;11.80;99.90;;;;;;5097838;28;20208;-51
2023/04/18 11:00:20;;;;;;;1999.90;985.67;;;11.80;99.90;;;;;;5111956;28;21018;-52
2023/04/18 11:02:50;;;;;;;1999.90;670.10;;;12.00;99.90;;;;;;5111860;28;20207;-50
2023/04/18 11:05:20;;;;;;;1999.90;943.30;;;12.10;99.90;;;;;;5097921;28;20200;-52
2023/04/18 11:07:49;;;;;;;1999.90;920.50;;;12.10;99.90;;;;;;5102223;28;20204;-52
2023/04/18 11:10:18;;;;;;;1999.90;772.87;;;12.30;99.90;;;;;;5091732;28;20229;-52
2023/04/18 11:12:48;;;;;;;1999.90;999.90;;;12.40;99.90;;;;;;5094736;28;20224;-51
2023/04/18 11:15:20;;;;;;;1999.90;918.63;;;12.50;99.90;;;;;;5107891;28;20595;-51
2023/04/18 11:17:57;;;;;;;1999.90;999.90;;;12.60;99.90;;;;;;5104949;28;20306;-52
2023/04/18 11:20:25;;;;;;;1999.90;999.90;;;12.70;99.90;;;;;;5108982;28;20229;-52
2023/04/18 11:22:55;;;;;;;1999.90;928.53;;;13.00;99.90;;;;;;5100429;28;20287;-51
2023/04/18 11:25:25;;;;;;;1999.90;923.50;;;13.10;99.90;;;;;;5100022;28;20292;-52
2023/04/18 11:27:57;;;;;;;1999.90;999.90;;;13.20;99.90;;;;;;5086818;28;20207;-51
2023/04/18 11:30:26;;;;;;;1999.90;999.90;;;13.30;99.90;;;;;;5090880;28;20249;-51
2023/04/18 11:32:54;;;;;;;1999.90;845.20;;;13.30;99.90;;;;;;5090539;28;20285;-52
2023/04/18 11:35:23;;;;;;;1999.90;999.90;;;13.50;99.90;;;;;;5091286;28;20212;-52
2023/04/18 11:37:51;;;;;;;1999.90;999.90;;;13.60;99.90;;;;;;5090707;28;20642;-52
2023/04/18 11:40:19;;;;;;;1999.90;999.90;;;13.70;99.90;;;;;;5091167;28;20212;-52
2023/04/18 11:42:47;;;;;;;1999.90;999.90;;;13.80;99.90;;;;;;5077947;28;20243;-51
2023/04/18 11:45:16;;;;;;;1999.90;999.90;;;14.20;99.90;;;;;;5089367;28;20716;-52
2023/04/18 11:47:47;;;;;;;1999.90;999.90;;;14.00;99.90;;;;;;5091050;28;20290;-52
2023/04/18 11:50:15;;;;;;;1999.90;999.90;;;14.20;99.90;;;;;;5090653;28;20223;-52
2023/04/18 11:52:43;;;;;;;1999.90;999.90;;;14.30;99.90;;;;;;5089789;28;20228;-52
2023/04/18 11:55:13;;;;;;;1999.90;999.90;;;14.40;99.90;;;;;;5090435;28;20304;-52
2023/04/18 11:57:41;;;;;;;1999.90;986.23;;;14.50;99.90;;;;;;5088259;28;20265;-52
2023/04/18 12:00:11;;;;;;;1999.90;991.93;;;14.40;99.90;;;;;;5080434;28;20628;-51
2023/04/18 12:02:42;;;;;;;1999.90;999.90;;;14.60;99.90;;;;;;5086852;28;20231;-51
2023/04/18 12:05:13;;;;;;;1999.90;999.90;;;14.60;99.90;;;;;;5087557;28;20196;-52
2023/04/18 12:07:44;;;;;;;1999.90;999.90;;;14.50;99.90;;;;;;5080633;28;20209;-52
2023/04/18 12:10:24;;;;;;;1999.90;999.90;;;14.50;99.90;;;;;;5079856;28;20201;-53
2023/04/18 12:12:54;;;;;;;1999.90;999.90;;;14.50;99.90;;;;;;5090286;28;20316;-52
2023/04/18 12:15:25;;;;;;;1999.90;985.90;;;14.60;99.90;;;;;;5090564;28;20296;-52
2023/04/18 12:17:59;;;;;;;1999.90;999.90;;;14.50;99.90;;;;;;5075594;28;20223;-52
2023/04/18 12:20:35;;;;;;;1999.90;980.35;;;14.60;99.90;;;;;;5090238;28;20208;-52
2023/04/18 12:23:03;;;;;;;1999.90;999.90;;;14.50;99.90;;;;;;5089318;28;20757;-52